sensor_id;sensor_type;location;lat;lon;timestamp;temperature;humidity
31967;DHT22;18496;52.042;6.812;2024-03-22T00:01:35;12.70;99.90
31967;DHT22;18496;52.042;6.812;2024-03-22T00:03:39;12.70;99.90
31967;DHT22;18496;52.042;6.812;2024-03-22T00:05:42;12.70;99.90
31967;DHT22;18496;52.042;6.812;2024-03-22T00:07:46;12.70;99.90
31967;DHT22;18496;52.042;6.812;2024-03-22T00:09:52;12.70;99.90
31967;DHT22;18496;52.042;6.812;2024-03-22T00:11:59;12.70;99.90
31967;DHT22;18496;52.042;6.812;2024-03-22T00:14:03;12.70;99.90
31967;DHT22;18496;52.042;6.812;2024-03-22T00:16:07;12.80;99.90
31967;DHT22;18496;52.042;6.812;2024-03-22T00:18:11;12.80;99.90
31967;DHT22;18496;52.042;6.812;2024-03-22T00:20:15;12.80;99.90
31967;DHT22;18496;52.042;6.812;2024-03-22T00:22:19;12.70;99.90
31967;DHT22;18496;52.042;6.812;2024-03-22T00:24:23;12.70;99.90
31967;DHT22;18496;52.042;6.812;2024-03-22T00:26:27;12.80;99.90
31967;DHT22;18496;52.042;6.812;2024-03-22T00:28:31;12.80;99.90
31967;DHT22;18496;52.042;6.812;2024-03-22T00:30:37;12.80;99.90
31967;DHT22;18496;52.042;6.812;2024-03-22T00:32:43;12.80;99.90
31967;DHT22;18496;52.042;6.812;2024-03-22T00:34:48;12.70;99.90
31967;DHT22;18496;52.042;6.812;2024-03-22T00:36:54;12.80;99.90
31967;DHT22;18496;52.042;6.812;2024-03-22T00:38:58;12.80;99.90
31967;DHT22;18496;52.042;6.812;2024-03-22T00:41:02;12.80;99.90
31967;DHT22;18496;52.042;6.812;2024-03-22T00:43:06;12.70;99.90
31967;DHT22;18496;52.042;6.812;2024-03-22T00:45:10;12.80;99.90
31967;DHT22;18496;52.042;6.812;2024-03-22T00:47:16;12.80;99.90
31967;DHT22;18496;52.042;6.812;2024-03-22T00:49:20;12.80;99.90
31967;DHT22;18496;52.042;6.812;2024-03-22T00:51:25;12.70;99.90
31967;DHT22;18496;52.042;6.812;2024-03-22T00:53:30;12.70;99.90
31967;DHT22;18496;52.042;6.812;2024-03-22T00:55:37;12.70;99.90
31967;DHT22;18496;52.042;6.812;2024-03-22T00:57:40;12.70;99.90
31967;DHT22;18496;52.042;6.812;2024-03-22T00:59:44;12.70;99.90
31967;DHT22;18496;52.042;6.812;2024-03-22T01:01:48;12.70;99.90
31967;DHT22;18496;52.042;6.812;2024-03-22T01:03:58;12.80;99.90
31967;DHT22;18496;52.042;6.812;2024-03-22T01:06:02;12.80;99.90
31967;DHT22;18496;52.042;6.812;2024-03-22T01:08:06;12.80;99.90
31967;DHT22;18496;52.042;6.812;2024-03-22T01:10:11;12.80;99.90
31967;DHT22;18496;52.042;6.812;2024-03-22T01:12:15;12.80;99.90
31967;DHT22;18496;52.042;6.812;2024-03-22T01:14:19;12.80;99.90
31967;DHT22;18496;52.042;6.812;2024-03-22T01:16:25;12.90;99.90
31967;DHT22;18496;52.042;6.812;2024-03-22T01:18:29;12.90;99.90
31967;DHT22;18496;52.042;6.812;2024-03-22T01:20:32;12.90;99.90
31967;DHT22;18496;52.042;6.812;2024-03-22T01:22:36;12.90;99.90
31967;DHT22;18496;52.042;6.812;2024-03-22T01:24:40;12.90;99.90
31967;DHT22;18496;52.042;6.812;2024-03-22T01:26:47;12.90;99.90
31967;DHT22;18496;52.042;6.812;2024-03-22T01:28:51;12.80;99.90
31967;DHT22;18496;52.042;6.812;2024-03-22T01:30:57;12.90;99.90
31967;DHT22;18496;52.042;6.812;2024-03-22T01:33:01;12.90;99.90
31967;DHT22;18496;52.042;6.812;2024-03-22T01:35:05;12.90;99.90
31967;DHT22;18496;52.042;6.812;2024-03-22T01:37:09;12.90;99.90
31967;DHT22;18496;52.042;6.812;2024-03-22T01:39:13;12.90;99.90
31967;DHT22;18496;52.042;6.812;2024-03-22T01:41:19;12.80;99.90
31967;DHT22;18496;52.042;6.812;2024-03-22T01:43:23;12.90;99.90
31967;DHT22;18496;52.042;6.812;2024-03-22T01:45:32;12.90;99.90
31967;DHT22;18496;52.042;6.812;2024-03-22T01:47:37;12.90;99.90
31967;DHT22;18496;52.042;6.812;2024-03-22T01:49:41;12.90;99.90
31967;DHT22;18496;52.042;6.812;2024-03-22T01:51:45;12.90;99.90
31967;DHT22;18496;52.042;6.812;2024-03-22T01:53:49;12.90;99.90
31967;DHT22;18496;52.042;6.812;2024-03-22T01:55:53;12.90;99.90
31967;DHT22;18496;52.042;6.812;2024-03-22T01:57:56;12.90;99.90
31967;DHT22;18496;52.042;6.812;2024-03-22T02:00:00;12.90;99.90
31967;DHT22;18496;52.042;6.812;2024-03-22T02:02:07;13.00;99.90
31967;DHT22;18496;52.042;6.812;2024-03-22T02:04:14;13.00;99.90
31967;DHT22;18496;52.042;6.812;2024-03-22T02:06:18;12.90;99.90
31967;DHT22;18496;52.042;6.812;2024-03-22T02:08:24;12.90;99.90
31967;DHT22;18496;52.042;6.812;2024-03-22T02:10:30;12.90;99.90
31967;DHT22;18496;52.042;6.812;2024-03-22T02:12:40;13.00;99.90
31967;DHT22;18496;52.042;6.812;2024-03-22T02:14:44;13.00;99.90
31967;DHT22;18496;52.042;6.812;2024-03-22T02:16:48;13.00;99.90
31967;DHT22;18496;52.042;6.812;2024-03-22T02:18:52;13.00;99.90
31967;DHT22;18496;52.042;6.812;2024-03-22T02:20:56;13.00;99.90
31967;DHT22;18496;52.042;6.812;2024-03-22T02:23:00;13.00;99.90
31967;DHT22;18496;52.042;6.812;2024-03-22T02:25:04;13.00;99.90
31967;DHT22;18496;52.042;6.812;2024-03-22T02:27:08;13.00;99.90
31967;DHT22;18496;52.042;6.812;2024-03-22T02:29:12;13.00;99.90
31967;DHT22;18496;52.042;6.812;2024-03-22T02:31:18;12.90;99.90
31967;DHT22;18496;52.042;6.812;2024-03-22T02:33:26;13.00;99.90
31967;DHT22;18496;52.042;6.812;2024-03-22T02:35:30;13.00;99.90
31967;DHT22;18496;52.042;6.812;2024-03-22T02:37:33;13.00;99.90
31967;DHT22;18496;52.042;6.812;2024-03-22T02:39:38;13.00;99.90
31967;DHT22;18496;52.042;6.812;2024-03-22T02:41:41;13.00;99.90
31967;DHT22;18496;52.042;6.812;2024-03-22T02:43:45;13.00;99.90
31967;DHT22;18496;52.042;6.812;2024-03-22T02:45:49;13.00;99.90
31967;DHT22;18496;52.042;6.812;2024-03-22T02:47:53;13.00;99.90
31967;DHT22;18496;52.042;6.812;2024-03-22T02:49:56;13.00;99.90
31967;DHT22;18496;52.042;6.812;2024-03-22T02:52:00;13.00;99.90
31967;DHT22;18496;52.042;6.812;2024-03-22T02:54:04;12.90;99.90
31967;DHT22;18496;52.042;6.812;2024-03-22T02:56:08;13.00;99.90
31967;DHT22;18496;52.042;6.812;2024-03-22T02:58:13;13.00;99.90
31967;DHT22;18496;52.042;6.812;2024-03-22T03:00:16;12.90;99.90
31967;DHT22;18496;52.042;6.812;2024-03-22T03:02:21;12.90;99.90
31967;DHT22;18496;52.042;6.812;2024-03-22T03:04:25;12.90;99.90
31967;DHT22;18496;52.042;6.812;2024-03-22T03:06:29;12.90;99.90
31967;DHT22;18496;52.042;6.812;2024-03-22T03:08:32;12.90;99.90
31967;DHT22;18496;52.042;6.812;2024-03-22T03:10:36;12.90;99.90
31967;DHT22;18496;52.042;6.812;2024-03-22T03:12:40;12.90;99.90
31967;DHT22;18496;52.042;6.812;2024-03-22T03:14:44;12.90;99.90
31967;DHT22;18496;52.042;6.812;2024-03-22T03:16:47;12.90;99.90
31967;DHT22;18496;52.042;6.812;2024-03-22T03:18:51;12.90;99.90
31967;DHT22;18496;52.042;6.812;2024-03-22T03:20:55;12.90;99.90
31967;DHT22;18496;52.042;6.812;2024-03-22T03:22:58;13.00;99.90
31967;DHT22;18496;52.042;6.812;2024-03-22T03:25:04;13.00;99.90
31967;DHT22;18496;52.042;6.812;2024-03-22T03:27:07;13.00;99.90
31967;DHT22;18496;52.042;6.812;2024-03-22T03:29:11;13.00;99.90
31967;DHT22;18496;52.042;6.812;2024-03-22T03:31:15;13.00;99.90
31967;DHT22;18496;52.042;6.812;2024-03-22T03:33:18;13.00;99.90
31967;DHT22;18496;52.042;6.812;2024-03-22T03:35:22;13.00;99.90
31967;DHT22;18496;52.042;6.812;2024-03-22T03:37:26;13.00;99.90
31967;DHT22;18496;52.042;6.812;2024-03-22T03:39:30;12.90;99.90
31967;DHT22;18496;52.042;6.812;2024-03-22T03:41:33;13.00;99.90
31967;DHT22;18496;52.042;6.812;2024-03-22T03:43:37;13.00;99.90
31967;DHT22;18496;52.042;6.812;2024-03-22T03:45:41;13.00;99.90
31967;DHT22;18496;52.042;6.812;2024-03-22T03:47:45;13.00;99.90
31967;DHT22;18496;52.042;6.812;2024-03-22T03:49:49;12.90;99.90
31967;DHT22;18496;52.042;6.812;2024-03-22T03:51:53;13.00;99.90
31967;DHT22;18496;52.042;6.812;2024-03-22T03:53:56;13.00;99.90
31967;DHT22;18496;52.042;6.812;2024-03-22T03:56:00;13.00;99.90
31967;DHT22;18496;52.042;6.812;2024-03-22T03:58:04;13.00;99.90
31967;DHT22;18496;52.042;6.812;2024-03-22T04:00:09;13.00;99.90
31967;DHT22;18496;52.042;6.812;2024-03-22T04:02:12;13.00;99.90
31967;DHT22;18496;52.042;6.812;2024-03-22T04:04:16;13.00;99.90
31967;DHT22;18496;52.042;6.812;2024-03-22T04:06:20;13.00;99.90
31967;DHT22;18496;52.042;6.812;2024-03-22T04:08:25;13.00;99.90
31967;DHT22;18496;52.042;6.812;2024-03-22T04:10:29;13.00;99.90
31967;DHT22;18496;52.042;6.812;2024-03-22T04:12:33;13.00;99.90
31967;DHT22;18496;52.042;6.812;2024-03-22T04:14:36;13.00;99.90
31967;DHT22;18496;52.042;6.812;2024-03-22T04:16:40;13.00;99.90
31967;DHT22;18496;52.042;6.812;2024-03-22T04:18:44;13.00;99.90
31967;DHT22;18496;52.042;6.812;2024-03-22T04:20:58;13.10;99.90
31967;DHT22;18496;52.042;6.812;2024-03-22T04:23:02;13.10;99.90
31967;DHT22;18496;52.042;6.812;2024-03-22T04:25:06;13.00;99.90
31967;DHT22;18496;52.042;6.812;2024-03-22T04:27:11;13.00;99.90
31967;DHT22;18496;52.042;6.812;2024-03-22T04:29:15;13.00;99.90
31967;DHT22;18496;52.042;6.812;2024-03-22T04:31:19;13.00;99.90
31967;DHT22;18496;52.042;6.812;2024-03-22T04:33:22;13.00;99.90
31967;DHT22;18496;52.042;6.812;2024-03-22T04:35:26;13.00;99.90
31967;DHT22;18496;52.042;6.812;2024-03-22T04:37:30;13.00;99.90
31967;DHT22;18496;52.042;6.812;2024-03-22T04:39:33;13.00;99.90
31967;DHT22;18496;52.042;6.812;2024-03-22T04:41:37;13.00;99.90
31967;DHT22;18496;52.042;6.812;2024-03-22T04:43:41;13.00;99.90
31967;DHT22;18496;52.042;6.812;2024-03-22T04:45:48;13.00;99.90
31967;DHT22;18496;52.042;6.812;2024-03-22T04:47:51;13.00;99.90
31967;DHT22;18496;52.042;6.812;2024-03-22T04:49:55;13.00;99.90
31967;DHT22;18496;52.042;6.812;2024-03-22T04:51:59;13.00;99.90
31967;DHT22;18496;52.042;6.812;2024-03-22T04:54:03;13.00;99.90
31967;DHT22;18496;52.042;6.812;2024-03-22T04:56:06;13.00;99.90
31967;DHT22;18496;52.042;6.812;2024-03-22T04:58:15;13.00;99.90
31967;DHT22;18496;52.042;6.812;2024-03-22T05:00:19;13.00;99.90
31967;DHT22;18496;52.042;6.812;2024-03-22T05:02:23;13.00;99.90
31967;DHT22;18496;52.042;6.812;2024-03-22T05:04:29;13.00;99.90
31967;DHT22;18496;52.042;6.812;2024-03-22T05:06:33;13.00;99.90
31967;DHT22;18496;52.042;6.812;2024-03-22T05:08:37;13.00;99.90
31967;DHT22;18496;52.042;6.812;2024-03-22T05:10:40;13.00;99.90
31967;DHT22;18496;52.042;6.812;2024-03-22T05:12:45;13.10;99.90
31967;DHT22;18496;52.042;6.812;2024-03-22T05:14:49;13.00;99.90
31967;DHT22;18496;52.042;6.812;2024-03-22T05:16:53;13.00;99.90
31967;DHT22;18496;52.042;6.812;2024-03-22T05:18:57;13.00;99.90
31967;DHT22;18496;52.042;6.812;2024-03-22T05:21:01;13.10;99.90
31967;DHT22;18496;52.042;6.812;2024-03-22T05:23:05;13.10;99.90
31967;DHT22;18496;52.042;6.812;2024-03-22T05:25:12;13.10;99.90
31967;DHT22;18496;52.042;6.812;2024-03-22T05:27:17;13.10;99.90
31967;DHT22;18496;52.042;6.812;2024-03-22T05:29:21;13.10;99.90
31967;DHT22;18496;52.042;6.812;2024-03-22T05:31:25;13.10;99.90
31967;DHT22;18496;52.042;6.812;2024-03-22T05:33:28;13.10;99.90
31967;DHT22;18496;52.042;6.812;2024-03-22T05:35:32;13.00;99.90
31967;DHT22;18496;52.042;6.812;2024-03-22T05:37:36;13.10;99.90
31967;DHT22;18496;52.042;6.812;2024-03-22T05:39:40;13.10;99.90
31967;DHT22;18496;52.042;6.812;2024-03-22T05:41:44;13.10;99.90
31967;DHT22;18496;52.042;6.812;2024-03-22T05:43:49;13.10;99.90
31967;DHT22;18496;52.042;6.812;2024-03-22T05:45:53;13.10;99.90
31967;DHT22;18496;52.042;6.812;2024-03-22T05:47:56;13.10;99.90
31967;DHT22;18496;52.042;6.812;2024-03-22T05:50:00;13.10;99.90
31967;DHT22;18496;52.042;6.812;2024-03-22T05:52:05;13.10;99.90
31967;DHT22;18496;52.042;6.812;2024-03-22T05:54:09;13.10;99.90
31967;DHT22;18496;52.042;6.812;2024-03-22T05:56:13;13.10;99.90
31967;DHT22;18496;52.042;6.812;2024-03-22T05:58:17;13.10;99.90
31967;DHT22;18496;52.042;6.812;2024-03-22T06:00:21;13.10;99.90
31967;DHT22;18496;52.042;6.812;2024-03-22T06:02:25;13.10;99.90
31967;DHT22;18496;52.042;6.812;2024-03-22T06:04:28;13.10;99.90
31967;DHT22;18496;52.042;6.812;2024-03-22T06:06:34;13.10;99.90
31967;DHT22;18496;52.042;6.812;2024-03-22T06:08:37;13.10;99.90
31967;DHT22;18496;52.042;6.812;2024-03-22T06:10:43;13.00;99.90
31967;DHT22;18496;52.042;6.812;2024-03-22T06:12:46;13.00;99.90
31967;DHT22;18496;52.042;6.812;2024-03-22T06:14:50;13.00;99.90
31967;DHT22;18496;52.042;6.812;2024-03-22T06:16:54;13.00;99.90
31967;DHT22;18496;52.042;6.812;2024-03-22T06:18:58;13.00;99.90
31967;DHT22;18496;52.042;6.812;2024-03-22T06:21:01;13.00;99.90
31967;DHT22;18496;52.042;6.812;2024-03-22T06:23:07;13.00;99.90
31967;DHT22;18496;52.042;6.812;2024-03-22T06:25:11;13.00;99.90
31967;DHT22;18496;52.042;6.812;2024-03-22T06:27:15;13.00;99.90
31967;DHT22;18496;52.042;6.812;2024-03-22T06:29:19;13.00;99.90
31967;DHT22;18496;52.042;6.812;2024-03-22T06:31:23;13.00;99.90
31967;DHT22;18496;52.042;6.812;2024-03-22T06:33:26;13.00;99.90
31967;DHT22;18496;52.042;6.812;2024-03-22T06:35:30;13.00;99.90
31967;DHT22;18496;52.042;6.812;2024-03-22T06:37:34;13.00;99.90
31967;DHT22;18496;52.042;6.812;2024-03-22T06:39:37;13.00;99.90
31967;DHT22;18496;52.042;6.812;2024-03-22T06:41:41;13.00;99.90
31967;DHT22;18496;52.042;6.812;2024-03-22T06:43:45;13.00;99.90
31967;DHT22;18496;52.042;6.812;2024-03-22T06:45:49;13.00;99.90
31967;DHT22;18496;52.042;6.812;2024-03-22T06:47:53;13.00;99.90
31967;DHT22;18496;52.042;6.812;2024-03-22T06:49:57;13.00;99.90
31967;DHT22;18496;52.042;6.812;2024-03-22T06:52:01;13.00;99.90
31967;DHT22;18496;52.042;6.812;2024-03-22T06:54:05;13.00;99.90
31967;DHT22;18496;52.042;6.812;2024-03-22T06:56:08;13.00;99.90
31967;DHT22;18496;52.042;6.812;2024-03-22T06:58:12;13.00;99.90
31967;DHT22;18496;52.042;6.812;2024-03-22T07:00:19;13.00;99.90
31967;DHT22;18496;52.042;6.812;2024-03-22T07:02:23;13.00;99.90
31967;DHT22;18496;52.042;6.812;2024-03-22T07:04:26;13.00;99.90
31967;DHT22;18496;52.042;6.812;2024-03-22T07:06:30;13.00;99.90
31967;DHT22;18496;52.042;6.812;2024-03-22T07:08:34;13.00;99.90
31967;DHT22;18496;52.042;6.812;2024-03-22T07:10:41;13.00;99.90
31967;DHT22;18496;52.042;6.812;2024-03-22T07:12:45;13.00;99.90
31967;DHT22;18496;52.042;6.812;2024-03-22T07:14:49;13.00;99.90
31967;DHT22;18496;52.042;6.812;2024-03-22T07:16:53;13.00;99.90
31967;DHT22;18496;52.042;6.812;2024-03-22T07:18:57;13.00;99.90
31967;DHT22;18496;52.042;6.812;2024-03-22T07:21:01;13.00;99.90
31967;DHT22;18496;52.042;6.812;2024-03-22T07:23:05;13.00;99.90
31967;DHT22;18496;52.042;6.812;2024-03-22T07:25:09;13.00;99.90
31967;DHT22;18496;52.042;6.812;2024-03-22T07:27:13;13.00;99.90
31967;DHT22;18496;52.042;6.812;2024-03-22T07:29:21;13.00;99.90
31967;DHT22;18496;52.042;6.812;2024-03-22T07:31:24;13.00;99.90
31967;DHT22;18496;52.042;6.812;2024-03-22T07:33:28;13.00;99.90
31967;DHT22;18496;52.042;6.812;2024-03-22T07:35:34;13.00;99.90
31967;DHT22;18496;52.042;6.812;2024-03-22T07:37:38;13.00;99.90
31967;DHT22;18496;52.042;6.812;2024-03-22T07:39:42;13.10;99.90
31967;DHT22;18496;52.042;6.812;2024-03-22T07:41:45;13.00;99.90
31967;DHT22;18496;52.042;6.812;2024-03-22T07:43:49;13.10;99.90
31967;DHT22;18496;52.042;6.812;2024-03-22T07:45:53;13.10;99.90
31967;DHT22;18496;52.042;6.812;2024-03-22T07:47:56;13.10;99.90
31967;DHT22;18496;52.042;6.812;2024-03-22T07:50:00;13.10;99.90
31967;DHT22;18496;52.042;6.812;2024-03-22T07:52:04;13.10;99.90
31967;DHT22;18496;52.042;6.812;2024-03-22T07:54:08;13.10;99.90
31967;DHT22;18496;52.042;6.812;2024-03-22T07:56:12;13.10;99.90
31967;DHT22;18496;52.042;6.812;2024-03-22T07:58:16;13.10;99.90
31967;DHT22;18496;52.042;6.812;2024-03-22T08:00:19;13.10;99.90
31967;DHT22;18496;52.042;6.812;2024-03-22T08:02:23;13.10;99.90
31967;DHT22;18496;52.042;6.812;2024-03-22T08:04:27;13.10;99.90
31967;DHT22;18496;52.042;6.812;2024-03-22T08:06:31;13.00;99.90
31967;DHT22;18496;52.042;6.812;2024-03-22T08:08:35;13.00;99.90
31967;DHT22;18496;52.042;6.812;2024-03-22T08:10:39;13.10;99.90
31967;DHT22;18496;52.042;6.812;2024-03-22T08:12:42;13.10;99.90
31967;DHT22;18496;52.042;6.812;2024-03-22T08:14:46;13.00;99.90
31967;DHT22;18496;52.042;6.812;2024-03-22T08:16:50;13.00;99.90
31967;DHT22;18496;52.042;6.812;2024-03-22T08:18:54;13.00;99.90
31967;DHT22;18496;52.042;6.812;2024-03-22T08:20:57;13.00;99.90
31967;DHT22;18496;52.042;6.812;2024-03-22T08:23:01;13.00;99.90
31967;DHT22;18496;52.042;6.812;2024-03-22T08:25:05;12.90;99.90
31967;DHT22;18496;52.042;6.812;2024-03-22T08:27:11;12.90;99.90
31967;DHT22;18496;52.042;6.812;2024-03-22T08:29:14;12.90;99.90
31967;DHT22;18496;52.042;6.812;2024-03-22T08:31:18;13.00;99.90
31967;DHT22;18496;52.042;6.812;2024-03-22T08:33:28;12.90;99.90
31967;DHT22;18496;52.042;6.812;2024-03-22T08:35:32;13.00;99.90
31967;DHT22;18496;52.042;6.812;2024-03-22T08:37:36;13.00;99.90
31967;DHT22;18496;52.042;6.812;2024-03-22T08:39:39;13.10;99.90
31967;DHT22;18496;52.042;6.812;2024-03-22T08:41:44;13.10;99.90
31967;DHT22;18496;52.042;6.812;2024-03-22T08:43:48;13.00;99.90
31967;DHT22;18496;52.042;6.812;2024-03-22T08:45:52;13.10;99.90
31967;DHT22;18496;52.042;6.812;2024-03-22T08:47:55;13.10;99.90
31967;DHT22;18496;52.042;6.812;2024-03-22T08:50:00;13.10;99.90
31967;DHT22;18496;52.042;6.812;2024-03-22T08:52:04;13.10;99.90
31967;DHT22;18496;52.042;6.812;2024-03-22T08:54:07;13.10;99.90
31967;DHT22;18496;52.042;6.812;2024-03-22T08:56:11;13.20;99.90
31967;DHT22;18496;52.042;6.812;2024-03-22T08:58:15;13.20;99.90
31967;DHT22;18496;52.042;6.812;2024-03-22T09:00:20;13.20;99.90
31967;DHT22;18496;52.042;6.812;2024-03-22T09:02:24;13.20;99.90
31967;DHT22;18496;52.042;6.812;2024-03-22T09:04:28;13.20;99.90
31967;DHT22;18496;52.042;6.812;2024-03-22T09:06:31;13.20;99.90
31967;DHT22;18496;52.042;6.812;2024-03-22T09:08:35;13.20;99.90
31967;DHT22;18496;52.042;6.812;2024-03-22T09:10:39;13.10;99.90
31967;DHT22;18496;52.042;6.812;2024-03-22T09:12:43;13.10;99.90
31967;DHT22;18496;52.042;6.812;2024-03-22T09:14:46;13.10;99.90
31967;DHT22;18496;52.042;6.812;2024-03-22T09:16:50;13.10;99.90
31967;DHT22;18496;52.042;6.812;2024-03-22T09:18:54;13.00;99.90
31967;DHT22;18496;52.042;6.812;2024-03-22T09:20:57;13.00;99.90
31967;DHT22;18496;52.042;6.812;2024-03-22T09:23:01;13.00;99.90
31967;DHT22;18496;52.042;6.812;2024-03-22T09:25:06;13.00;99.90
31967;DHT22;18496;52.042;6.812;2024-03-22T09:27:09;13.00;99.90
31967;DHT22;18496;52.042;6.812;2024-03-22T09:29:16;13.00;99.90
31967;DHT22;18496;52.042;6.812;2024-03-22T09:31:19;12.90;99.90
31967;DHT22;18496;52.042;6.812;2024-03-22T09:33:23;12.90;99.90
31967;DHT22;18496;52.042;6.812;2024-03-22T09:35:27;12.90;99.90
31967;DHT22;18496;52.042;6.812;2024-03-22T09:37:30;12.90;99.90
31967;DHT22;18496;52.042;6.812;2024-03-22T09:39:34;12.90;99.90
31967;DHT22;18496;52.042;6.812;2024-03-22T09:41:42;12.90;99.90
31967;DHT22;18496;52.042;6.812;2024-03-22T09:43:48;13.00;99.90
31967;DHT22;18496;52.042;6.812;2024-03-22T09:45:55;12.90;99.90
31967;DHT22;18496;52.042;6.812;2024-03-22T09:47:59;12.90;99.90
31967;DHT22;18496;52.042;6.812;2024-03-22T09:50:07;12.90;99.90
31967;DHT22;18496;52.042;6.812;2024-03-22T09:52:12;12.90;99.90
31967;DHT22;18496;52.042;6.812;2024-03-22T09:54:16;12.90;99.90
31967;DHT22;18496;52.042;6.812;2024-03-22T09:56:21;12.90;99.90
31967;DHT22;18496;52.042;6.812;2024-03-22T09:58:25;12.90;99.90
31967;DHT22;18496;52.042;6.812;2024-03-22T10:00:29;12.90;99.90
31967;DHT22;18496;52.042;6.812;2024-03-22T10:02:35;12.90;99.90
31967;DHT22;18496;52.042;6.812;2024-03-22T10:04:43;12.90;99.90
31967;DHT22;18496;52.042;6.812;2024-03-22T10:06:47;12.90;99.90
31967;DHT22;18496;52.042;6.812;2024-03-22T10:08:51;12.90;99.90
31967;DHT22;18496;52.042;6.812;2024-03-22T10:10:55;12.80;99.90
31967;DHT22;18496;52.042;6.812;2024-03-22T10:13:01;12.80;99.90
31967;DHT22;18496;52.042;6.812;2024-03-22T10:15:05;12.80;99.90
31967;DHT22;18496;52.042;6.812;2024-03-22T10:17:11;12.80;99.90
31967;DHT22;18496;52.042;6.812;2024-03-22T10:19:16;12.80;99.90
31967;DHT22;18496;52.042;6.812;2024-03-22T10:21:19;12.80;99.90
31967;DHT22;18496;52.042;6.812;2024-03-22T10:23:25;12.70;99.90
31967;DHT22;18496;52.042;6.812;2024-03-22T10:25:29;12.70;99.90
31967;DHT22;18496;52.042;6.812;2024-03-22T10:27:33;12.70;99.90
31967;DHT22;18496;52.042;6.812;2024-03-22T10:29:37;12.70;99.90
31967;DHT22;18496;52.042;6.812;2024-03-22T10:31:40;12.70;99.90
31967;DHT22;18496;52.042;6.812;2024-03-22T10:33:44;12.70;99.90
31967;DHT22;18496;52.042;6.812;2024-03-22T10:35:53;12.70;99.90
31967;DHT22;18496;52.042;6.812;2024-03-22T10:38:01;12.70;99.90
31967;DHT22;18496;52.042;6.812;2024-03-22T10:40:05;12.70;99.90
31967;DHT22;18496;52.042;6.812;2024-03-22T10:42:13;12.70;99.90
31967;DHT22;18496;52.042;6.812;2024-03-22T10:44:19;12.70;99.90
31967;DHT22;18496;52.042;6.812;2024-03-22T10:46:29;12.70;99.90
31967;DHT22;18496;52.042;6.812;2024-03-22T10:48:33;12.60;99.90
31967;DHT22;18496;52.042;6.812;2024-03-22T10:50:41;12.60;99.90
31967;DHT22;18496;52.042;6.812;2024-03-22T10:53:09;12.60;99.90
31967;DHT22;18496;52.042;6.812;2024-03-22T10:55:20;12.60;99.90
31967;DHT22;18496;52.042;6.812;2024-03-22T10:57:26;12.60;99.90
31967;DHT22;18496;52.042;6.812;2024-03-22T10:59:34;12.50;99.90
31967;DHT22;18496;52.042;6.812;2024-03-22T11:01:38;12.50;99.90
31967;DHT22;18496;52.042;6.812;2024-03-22T11:03:41;12.50;99.90
31967;DHT22;18496;52.042;6.812;2024-03-22T11:05:49;12.50;99.90
31967;DHT22;18496;52.042;6.812;2024-03-22T11:08:05;12.50;99.90
31967;DHT22;18496;52.042;6.812;2024-03-22T11:10:11;12.50;99.90
31967;DHT22;18496;52.042;6.812;2024-03-22T11:12:15;12.50;99.90
31967;DHT22;18496;52.042;6.812;2024-03-22T11:14:19;12.50;99.90
31967;DHT22;18496;52.042;6.812;2024-03-22T11:16:27;12.50;99.90
31967;DHT22;18496;52.042;6.812;2024-03-22T11:18:31;12.50;99.90
31967;DHT22;18496;52.042;6.812;2024-03-22T11:20:39;12.50;99.90
31967;DHT22;18496;52.042;6.812;2024-03-22T11:22:42;12.40;99.90
31967;DHT22;18496;52.042;6.812;2024-03-22T11:24:46;12.50;99.90
31967;DHT22;18496;52.042;6.812;2024-03-22T11:26:50;12.50;99.90
31967;DHT22;18496;52.042;6.812;2024-03-22T11:28:53;12.50;99.90
31967;DHT22;18496;52.042;6.812;2024-03-22T11:30:57;12.50;99.90
31967;DHT22;18496;52.042;6.812;2024-03-22T11:33:04;12.50;99.90
31967;DHT22;18496;52.042;6.812;2024-03-22T11:35:12;12.50;99.90
31967;DHT22;18496;52.042;6.812;2024-03-22T11:37:16;12.50;99.90
31967;DHT22;18496;52.042;6.812;2024-03-22T11:39:20;12.50;99.90
31967;DHT22;18496;52.042;6.812;2024-03-22T11:41:28;12.50;99.90
31967;DHT22;18496;52.042;6.812;2024-03-22T11:43:33;12.50;99.90
31967;DHT22;18496;52.042;6.812;2024-03-22T11:45:37;12.50;99.90
31967;DHT22;18496;52.042;6.812;2024-03-22T11:47:41;12.50;99.90
31967;DHT22;18496;52.042;6.812;2024-03-22T11:49:45;12.50;99.90
31967;DHT22;18496;52.042;6.812;2024-03-22T11:51:48;12.50;99.90
31967;DHT22;18496;52.042;6.812;2024-03-22T11:53:54;12.50;99.90
31967;DHT22;18496;52.042;6.812;2024-03-22T11:55:59;12.50;99.90
31967;DHT22;18496;52.042;6.812;2024-03-22T11:58:03;12.50;99.90
31967;DHT22;18496;52.042;6.812;2024-03-22T12:00:07;12.60;99.90
31967;DHT22;18496;52.042;6.812;2024-03-22T12:02:18;12.60;99.90
31967;DHT22;18496;52.042;6.812;2024-03-22T12:04:22;12.50;99.90
31967;DHT22;18496;52.042;6.812;2024-03-22T12:09:46;12.60;99.90
31967;DHT22;18496;52.042;6.812;2024-03-22T12:15:13;12.60;99.90
31967;DHT22;18496;52.042;6.812;2024-03-22T12:17:16;12.50;99.90
31967;DHT22;18496;52.042;6.812;2024-03-22T12:19:20;12.50;99.90
31967;DHT22;18496;52.042;6.812;2024-03-22T12:21:25;12.40;99.90
31967;DHT22;18496;52.042;6.812;2024-03-22T12:23:28;12.40;99.90
31967;DHT22;18496;52.042;6.812;2024-03-22T12:25:32;12.40;99.90
31967;DHT22;18496;52.042;6.812;2024-03-22T12:27:36;12.30;99.90
31967;DHT22;18496;52.042;6.812;2024-03-22T12:29:40;12.40;99.90
31967;DHT22;18496;52.042;6.812;2024-03-22T12:31:44;12.40;99.90
31967;DHT22;18496;52.042;6.812;2024-03-22T12:33:48;12.30;99.90
31967;DHT22;18496;52.042;6.812;2024-03-22T12:35:52;12.40;99.90
31967;DHT22;18496;52.042;6.812;2024-03-22T12:37:56;12.40;99.90
31967;DHT22;18496;52.042;6.812;2024-03-22T12:40:00;12.40;99.90
31967;DHT22;18496;52.042;6.812;2024-03-22T12:42:04;12.40;99.90
31967;DHT22;18496;52.042;6.812;2024-03-22T12:44:09;12.40;99.90
31967;DHT22;18496;52.042;6.812;2024-03-22T12:46:13;12.40;99.90
31967;DHT22;18496;52.042;6.812;2024-03-22T12:48:17;12.40;99.90
31967;DHT22;18496;52.042;6.812;2024-03-22T12:50:20;12.40;99.90
31967;DHT22;18496;52.042;6.812;2024-03-22T12:52:24;12.40;99.90
31967;DHT22;18496;52.042;6.812;2024-03-22T12:54:28;12.40;99.90
31967;DHT22;18496;52.042;6.812;2024-03-22T12:56:31;12.40;99.90
31967;DHT22;18496;52.042;6.812;2024-03-22T12:58:35;12.40;99.90
31967;DHT22;18496;52.042;6.812;2024-03-22T13:00:39;12.50;99.90
31967;DHT22;18496;52.042;6.812;2024-03-22T13:02:43;12.50;99.90
31967;DHT22;18496;52.042;6.812;2024-03-22T13:04:47;12.50;99.90
31967;DHT22;18496;52.042;6.812;2024-03-22T13:06:51;12.50;99.90
31967;DHT22;18496;52.042;6.812;2024-03-22T13:08:55;12.50;99.90
31967;DHT22;18496;52.042;6.812;2024-03-22T13:10:59;12.40;99.90
31967;DHT22;18496;52.042;6.812;2024-03-22T13:13:03;12.40;99.90